Time;durP1;ratioP1;P1;durP2;ratioP2;P2;SDS_P1;SDS_P2;PMS_P1;PMS_P2;Temp;Humidity;BMP_temperature;BMP_pressure;BME280_temperature;BME280_humidity;BME280_pressure;Samples;Min_cycle;Max_cycle;Signal;HPM_P1;HPM_P2
2024/01/24 00:02:02;;;;;;;411.77;154.90;;;5.30;99.90;;;;;;5028349;28;20180;-51
2024/01/24 00:04:28;;;;;;;402.17;148.67;;;;;;;;;;5029984;28;20265;-51
2024/01/24 00:06:54;;;;;;;377.87;141.10;;;;;;;;;;5030204;28;20306;-51
2024/01/24 00:09:20;;;;;;;404.07;154.80;;;;;;;;;;5029229;28;20231;-51
2024/01/24 00:11:45;;;;;;;416.70;155.87;;;;;;;;;;5031463;28;20223;-51
2024/01/24 00:14:11;;;;;;;408.13;155.87;;;;;;;;;;5030699;28;20657;-51
2024/01/24 00:16:38;;;;;;;415.53;155.57;;;;;;;;;;5025527;28;20621;-51
2024/01/24 00:19:04;;;;;;;414.03;153.93;;;;;;;;;;5027198;28;20227;-51
2024/01/24 00:21:30;;;;;;;409.37;154.60;;;;;;;;;;5031581;28;20207;-51
2024/01/24 00:23:55;;;;;;;384.97;142.27;;;;;;;;;;5033358;28;20211;-51
2024/01/24 00:26:21;;;;;;;435.07;165.40;;;;;;;;;;5027756;28;20234;-51
2024/01/24 00:28:47;;;;;;;409.50;154.10;;;;;;;;;;5031419;28;20466;-51
2024/01/24 00:31:13;;;;;;;435.13;162.90;;;;;;;;;;5028236;28;20490;-51
2024/01/24 00:33:39;;;;;;;400.87;150.23;;;;;;;;;;5032233;28;20220;-51
2024/01/24 00:36:05;;;;;;;397.67;152.47;;;;;;;;;;5030933;28;20222;-51
2024/01/24 00:38:31;;;;;;;438.90;170.17;;;;;;;;;;5030189;28;20215;-51
2024/01/24 00:40:57;;;;;;;389.70;143.77;;;;;;;;;;5029049;28;20621;-51
2024/01/24 00:43:23;;;;;;;416.90;154.27;;;;;;;;;;5026156;28;20310;-51
2024/01/24 00:45:49;;;;;;;414.90;155.40;;;;;;;;;;5030831;28;20438;-51
2024/01/24 00:48:16;;;;;;;413.73;156.37;;;;;;;;;;5027944;28;20583;-51
2024/01/24 00:50:42;;;;;;;414.47;158.50;;;;;;;;;;5030917;28;20242;-51
2024/01/24 00:53:08;;;;;;;427.93;162.10;;;;;;;;;;5028458;28;20515;-51
2024/01/24 00:55:34;;;;;;;401.50;153.67;;;;;;;;;;5032114;28;20605;-51
2024/01/24 00:58:00;;;;;;;400.30;149.17;;;;;;;;;;5026542;28;20220;-51
2024/01/24 01:00:26;;;;;;;405.83;154.23;;;;;;;;;;5029109;28;20860;-51
2024/01/24 01:02:52;;;;;;;402.23;150.73;;;;;;;;;;5029956;28;20222;-51
2024/01/24 01:05:18;;;;;;;400.53;153.40;;;;;;;;;;5024730;28;20184;-51
2024/01/24 01:07:44;;;;;;;427.00;162.73;;;;;;;;;;5031954;28;20212;-51
2024/01/24 01:10:10;;;;;;;397.57;149.73;;;5.80;99.90;;;;;;5032317;28;20325;-51
2024/01/24 01:12:36;;;;;;;414.97;152.37;;;;;;;;;;5023595;28;20212;-51
2024/01/24 01:15:02;;;;;;;430.50;159.07;;;;;;;;;;5027827;28;20226;-51
2024/01/24 01:17:28;;;;;;;460.90;181.30;;;;;;;;;;5031455;28;20227;-51
2024/01/24 01:19:54;;;;;;;431.67;164.73;;;;;;;;;;5033212;28;20188;-51
2024/01/24 01:22:20;;;;;;;421.53;157.13;;;5.90;99.90;;;;;;5032999;28;20250;-51
2024/01/24 01:24:46;;;;;;;403.57;151.40;;;;;;;;;;5028579;28;20335;-51
2024/01/24 01:27:12;;;;;;;445.93;174.00;;;;;;;;;;5026745;28;20254;-51
2024/01/24 01:29:38;;;;;;;380.20;145.03;;;;;;;;;;5029914;28;20216;-51
2024/01/24 01:32:05;;;;;;;393.53;149.77;;;;;;;;;;5033575;28;20191;-51
2024/01/24 01:34:31;;;;;;;431.83;165.73;;;;;;;;;;5029698;28;20237;-51
2024/01/24 01:36:57;;;;;;;419.00;158.70;;;;;;;;;;5027458;28;20218;-51
2024/01/24 01:39:24;;;;;;;412.23;155.73;;;;;;;;;;5028312;28;20219;-51
2024/01/24 01:41:50;;;;;;;395.40;147.10;;;;;;;;;;5028269;28;20276;-51
2024/01/24 01:44:16;;;;;;;395.50;153.10;;;;;;;;;;5036897;28;20179;-51
2024/01/24 01:46:42;;;;;;;392.50;150.50;;;;;;;;;;5035402;28;20199;-51
2024/01/24 01:49:09;;;;;;;448.10;169.03;;;5.90;99.90;;;;;;5032093;28;20265;-51
2024/01/24 01:51:35;;;;;;;412.20;154.63;;;6.10;99.90;;;;;;5024944;28;20222;-51
2024/01/24 01:54:02;;;;;;;397.53;149.43;;;;;;;;;;5024100;28;20670;-51
2024/01/24 01:56:28;;;;;;;408.40;152.17;;;;;;;;;;5030857;28;20300;-51
2024/01/24 01:58:55;;;;;;;415.53;159.00;;;;;;;;;;5030796;28;20190;-51
2024/01/24 02:01:20;;;;;;;374.83;141.23;;;;;;;;;;5027454;28;20598;-51
2024/01/24 02:03:46;;;;;;;420.47;156.83;;;;;;;;;;5029514;28;20215;-51
2024/01/24 02:06:13;;;;;;;378.67;141.63;;;;;;;;;;5030854;28;20231;-51
2024/01/24 02:08:39;;;;;;;418.40;157.43;;;;;;;;;;5023713;28;20225;-51
2024/01/24 02:11:06;;;;;;;424.80;163.70;;;;;;;;;;5027591;28;20511;-51
2024/01/24 02:13:32;;;;;;;400.50;151.60;;;;;;;;;;5027582;28;20179;-52
2024/01/24 02:16:01;;;;;;;417.50;159.93;;;6.00;99.90;;;;;;5025539;28;20735;-52
2024/01/24 02:18:28;;;;;;;396.30;148.07;;;;;;;;;;5033245;28;20215;-52
2024/01/24 02:20:54;;;;;;;400.67;155.67;;;;;;;;;;5024837;28;20302;-52
2024/01/24 02:23:23;;;;;;;392.73;147.67;;;6.20;99.90;;;;;;5029732;28;20203;-52
2024/01/24 02:25:49;;;;;;;412.43;157.63;;;;;;;;;;5029367;28;20540;-52
2024/01/24 02:28:15;;;;;;;407.90;148.87;;;;;;;;;;5028918;28;20588;-52
2024/01/24 02:30:41;;;;;;;429.03;161.27;;;;;;;;;;5024542;28;20472;-51
2024/01/24 02:33:07;;;;;;;446.43;168.77;;;;;;;;;;5022018;28;20226;-52
2024/01/24 02:35:34;;;;;;;388.23;147.40;;;;;;;;;;5032032;28;20261;-52
2024/01/24 02:38:00;;;;;;;382.90;142.00;;;;;;;;;;5031556;28;20185;-52
2024/01/24 02:40:26;;;;;;;376.60;138.73;;;;;;;;;;5029206;28;20214;-52
2024/01/24 02:42:53;;;;;;;409.00;155.63;;;;;;;;;;5028844;28;20241;-52
2024/01/24 02:45:19;;;;;;;449.50;170.63;;;;;;;;;;5022541;28;20242;-52
2024/01/24 02:47:45;;;;;;;388.67;146.07;;;;;;;;;;5027476;28;20238;-52
2024/01/24 02:50:12;;;;;;;430.40;166.10;;;;;;;;;;5027839;28;20661;-52
2024/01/24 02:52:38;;;;;;;385.30;145.10;;;;;;;;;;5034234;28;20188;-52
2024/01/24 02:55:04;;;;;;;398.83;151.63;;;;;;;;;;5024549;28;20216;-52
2024/01/24 02:57:29;;;;;;;389.57;148.97;;;6.40;99.90;;;;;;5031200;28;20261;-52
2024/01/24 02:59:55;;;;;;;416.07;157.53;;;;;;;;;;5028349;28;20224;-52
2024/01/24 03:02:21;;;;;;;375.23;143.13;;;;;;;;;;5028573;28;20222;-51
2024/01/24 03:04:47;;;;;;;426.90;160.90;;;;;;;;;;5031552;28;20282;-51
2024/01/24 03:07:13;;;;;;;412.93;153.77;;;;;;;;;;5038453;28;20295;-51
2024/01/24 03:09:39;;;;;;;414.37;159.37;;;;;;;;;;5026941;28;20215;-52
2024/01/24 03:12:05;;;;;;;406.20;152.37;;;;;;;;;;5033389;28;20290;-52
2024/01/24 03:14:31;;;;;;;425.30;159.57;;;;;;;;;;5028821;28;20203;-52
2024/01/24 03:16:57;;;;;;;420.63;162.80;;;;;;;;;;5029913;28;20657;-52
2024/01/24 03:19:23;;;;;;;384.33;145.77;;;;;;;;;;5041131;28;20227;-52
2024/01/24 03:21:49;;;;;;;397.10;153.27;;;;;;;;;;5034852;28;20215;-52
2024/01/24 03:24:15;;;;;;;410.37;150.00;;;;;;;;;;5033299;28;20239;-52
2024/01/24 03:26:41;;;;;;;416.57;158.37;;;;;;;;;;5031482;28;20215;-52
2024/01/24 03:29:07;;;;;;;418.80;156.73;;;;;;;;;;5034582;28;21102;-52
2024/01/24 03:31:32;;;;;;;405.73;155.30;;;;;;;;;;5032901;28;20259;-52
2024/01/24 03:33:58;;;;;;;396.50;151.70;;;;;;;;;;5029916;28;20579;-52
2024/01/24 03:36:24;;;;;;;411.63;154.13;;;;;;;;;;5036052;28;20219;-52
2024/01/24 03:38:50;;;;;;;423.60;165.10;;;;;;;;;;5034189;28;20214;-52
2024/01/24 03:41:16;;;;;;;406.00;157.43;;;;;;;;;;5030506;28;20172;-52
2024/01/24 03:43:42;;;;;;;397.93;151.30;;;;;;;;;;5043911;28;20186;-52
2024/01/24 03:46:08;;;;;;;443.50;169.27;;;;;;;;;;5026890;28;20602;-52
2024/01/24 03:48:34;;;;;;;390.00;149.13;;;;;;;;;;5037326;28;20223;-52
2024/01/24 03:51:00;;;;;;;407.57;156.03;;;;;;;;;;5038260;28;20230;-52
2024/01/24 03:53:26;;;;;;;386.30;145.87;;;6.70;99.90;;;;;;5030272;28;20212;-52
2024/01/24 03:55:52;;;;;;;408.03;153.27;;;;;;;;;;5033483;28;20200;-52
2024/01/24 03:58:18;;;;;;;396.67;152.43;;;;;;;;;;5034912;28;20644;-52
2024/01/24 04:00:45;;;;;;;400.60;148.83;;;;;;;;;;5034080;28;20215;-52
2024/01/24 04:03:11;;;;;;;396.70;148.33;;;;;;;;;;5044229;28;20709;-52
2024/01/24 04:05:37;;;;;;;384.97;144.47;;;;;;;;;;5038188;28;20216;-52
2024/01/24 04:08:03;;;;;;;428.87;163.73;;;;;;;;;;5035154;28;20342;-52
2024/01/24 04:10:29;;;;;;;425.70;165.60;;;;;;;;;;5035347;28;20222;-52
2024/01/24 04:12:55;;;;;;;390.57;150.47;;;;;;;;;;5040226;28;20713;-52
2024/01/24 04:15:21;;;;;;;433.90;170.37;;;;;;;;;;5032353;28;20219;-52
2024/01/24 04:17:47;;;;;;;402.37;152.27;;;;;;;;;;5035415;28;20594;-52
2024/01/24 04:20:13;;;;;;;433.47;169.03;;;;;;;;;;5032497;28;20172;-52
2024/01/24 04:22:39;;;;;;;417.43;158.00;;;;;;;;;;5031490;28;20181;-52
2024/01/24 04:25:06;;;;;;;392.07;148.13;;;;;;;;;;5032166;28;20683;-52
2024/01/24 04:27:32;;;;;;;399.00;155.13;;;;;;;;;;5038167;28;20220;-52
2024/01/24 04:29:58;;;;;;;398.30;153.10;;;;;;;;;;5029786;28;20219;-52
2024/01/24 04:32:24;;;;;;;433.13;164.17;;;;;;;;;;5040134;28;20215;-53
2024/01/24 04:34:50;;;;;;;422.43;163.73;;;;;;;;;;5027903;28;20275;-54
2024/01/24 04:37:16;;;;;;;435.07;162.57;;;;;;;;;;5023280;28;20326;-54
2024/01/24 04:39:42;;;;;;;421.27;155.70;;;;;;;;;;5028339;28;20254;-54
2024/01/24 04:42:07;;;;;;;418.47;158.43;;;;;;;;;;5030196;28;20574;-53
2024/01/24 04:44:33;;;;;;;436.73;167.63;;;;;;;;;;5026176;28;20272;-53
2024/01/24 04:47:01;;;;;;;430.67;161.27;;;;;;;;;;5027763;28;20227;-54
2024/01/24 04:49:26;;;;;;;380.23;145.17;;;;;;;;;;5028812;28;20246;-53
2024/01/24 04:51:52;;;;;;;425.07;163.00;;;;;;;;;;5032479;28;20207;-54
2024/01/24 04:54:18;;;;;;;432.07;165.57;;;;;;;;;;5029560;28;20712;-54
2024/01/24 04:56:45;;;;;;;417.27;159.50;;;;;;;;;;5027646;28;20223;-54
2024/01/24 04:59:12;;;;;;;429.43;163.23;;;;;;;;;;5026611;28;20213;-54
2024/01/24 05:01:38;;;;;;;393.47;150.57;;;;;;;;;;5027298;28;20588;-54
2024/01/24 05:04:04;;;;;;;421.43;161.70;;;;;;;;;;5026296;28;20691;-53
2024/01/24 05:06:30;;;;;;;418.40;161.47;;;;;;;;;;5022791;28;20223;-53
2024/01/24 05:08:56;;;;;;;420.83;161.87;;;;;;;;;;5025493;28;20236;-54
2024/01/24 05:11:22;;;;;;;389.83;148.67;;;;;;;;;;5027639;28;20215;-53
2024/01/24 05:13:48;;;;;;;414.87;155.97;;;;;;;;;;5027857;28;20239;-54
2024/01/24 05:16:15;;;;;;;425.10;162.50;;;;;;;;;;5020331;28;20606;-54
2024/01/24 05:18:41;;;;;;;403.43;153.47;;;;;;;;;;5026270;28;20219;-53
2024/01/24 05:21:07;;;;;;;426.87;161.53;;;;;;;;;;5022862;28;20212;-54
2024/01/24 05:23:33;;;;;;;395.77;150.10;;;;;;;;;;5025180;28;20289;-54
2024/01/24 05:25:59;;;;;;;419.73;159.47;;;;;;;;;;5024539;28;20234;-54
2024/01/24 05:28:25;;;;;;;414.00;157.10;;;;;;;;;;5026087;28;20701;-54
2024/01/24 05:30:51;;;;;;;411.87;157.50;;;;;;;;;;5029580;28;20678;-54
2024/01/24 05:33:16;;;;;;;418.30;158.07;;;;;;;;;;5028068;28;20223;-54
2024/01/24 05:35:42;;;;;;;398.93;151.63;;;;;;;;;;5030146;28;20219;-53
2024/01/24 05:38:08;;;;;;;427.70;163.63;;;;;;;;;;5021144;28;20266;-54
2024/01/24 05:40:34;;;;;;;460.73;185.17;;;;;;;;;;5026549;28;20192;-53
2024/01/24 05:43:02;;;;;;;452.50;172.40;;;;;;;;;;5029871;28;20241;-54
2024/01/24 05:45:28;;;;;;;425.40;165.53;;;;;;;;;;5023634;28;20411;-54
2024/01/24 05:47:54;;;;;;;424.73;162.43;;;;;;;;;;5024885;28;20231;-54
2024/01/24 05:50:20;;;;;;;437.13;168.03;;;;;;;;;;5026973;28;20282;-54
2024/01/24 05:52:46;;;;;;;420.63;160.70;;;;;;;;;;5022824;28;20180;-54
2024/01/24 05:55:12;;;;;;;429.90;168.37;;;;;;;;;;5025769;28;20220;-54
2024/01/24 05:57:41;;;;;;;429.77;167.90;;;8.60;99.90;;;;;;5026912;28;20695;-54
2024/01/24 06:00:10;;;;;;;455.53;176.07;;;8.70;99.90;;;;;;5023532;28;20203;-54
2024/01/24 06:02:36;;;;;;;397.23;150.47;;;8.60;99.90;;;;;;5022076;28;20219;-54
2024/01/24 06:05:03;;;;;;;412.47;156.17;;;8.70;99.90;;;;;;5025219;28;20650;-53
2024/01/24 06:07:29;;;;;;;420.07;168.77;;;;;;;;;;5027526;28;20531;-54
2024/01/24 06:09:55;;;;;;;461.93;179.57;;;;;;;;;;5019832;28;20247;-54
2024/01/24 06:12:21;;;;;;;447.67;169.50;;;;;;;;;;5023018;28;20250;-54
2024/01/24 06:14:47;;;;;;;421.20;157.40;;;;;;;;;;5018499;28;20471;-54
2024/01/24 06:17:13;;;;;;;418.30;157.70;;;;;;;;;;5023011;28;20200;-54
2024/01/24 06:19:39;;;;;;;398.83;153.10;;;;;;;;;;5032590;28;20193;-53
2024/01/24 06:22:05;;;;;;;455.37;182.07;;;;;;;;;;5033436;28;20222;-53
2024/01/24 06:24:31;;;;;;;750.17;345.80;;;;;;;;;;5004801;28;20336;-54
2024/01/24 06:26:57;;;;;;;493.87;199.20;;;;;;;;;;5007166;28;20299;-52
2024/01/24 06:29:23;;;;;;;406.83;157.97;;;;;;;;;;5022125;28;20414;-53
2024/01/24 06:31:50;;;;;;;437.20;171.63;;;;;;;;;;5024369;28;20196;-53
2024/01/24 06:34:16;;;;;;;426.97;161.37;;;;;;;;;;5024585;28;20418;-53
2024/01/24 06:36:42;;;;;;;529.63;209.20;;;;;;;;;;5010757;28;20241;-53
2024/01/24 06:39:09;;;;;;;452.47;173.00;;;;;;;;;;5023386;28;20239;-53
2024/01/24 06:41:35;;;;;;;469.67;182.63;;;;;;;;;;5027363;28;20953;-53
2024/01/24 06:44:05;;;;;;;433.20;166.37;;;;;;;;;;5029353;28;20190;-52
2024/01/24 06:46:31;;;;;;;436.43;174.77;;;;;;;;;;5025297;28;20348;-54
2024/01/24 06:48:57;;;;;;;409.63;156.20;;;;;;;;;;5024996;28;20216;-52
2024/01/24 06:51:23;;;;;;;436.10;176.37;;;;;;;;;;5027260;28;20218;-52
2024/01/24 06:53:49;;;;;;;459.70;185.87;;;;;;;;;;5030191;28;20219;-53
2024/01/24 06:56:15;;;;;;;406.03;159.27;;;;;;;;;;5026617;28;20212;-52
2024/01/24 06:58:40;;;;;;;398.23;154.33;;;;;;;;;;5027984;28;20386;-53
2024/01/24 07:01:06;;;;;;;427.27;168.90;;;9.40;99.90;;;;;;5034146;28;20219;-53
2024/01/24 07:03:33;;;;;;;422.87;164.87;;;;;;;;;;5025412;28;20577;-53
2024/01/24 07:05:59;;;;;;;489.30;190.37;;;;;;;;;;5020501;28;20321;-52
2024/01/24 07:08:25;;;;;;;416.23;159.67;;;;;;;;;;5016636;28;20228;-53
2024/01/24 07:10:51;;;;;;;510.43;205.63;;;;;;;;;;5025641;28;20186;-53
2024/01/24 07:13:17;;;;;;;414.83;156.43;;;;;;;;;;5024123;28;20216;-52
2024/01/24 07:15:43;;;;;;;459.27;177.63;;;;;;;;;;5025641;28;20223;-54
2024/01/24 07:18:09;;;;;;;465.90;171.30;;;;;;;;;;5032378;28;20219;-52
2024/01/24 07:20:35;;;;;;;492.50;179.23;;;;;;;;;;5032716;28;20230;-52
2024/01/24 07:23:02;;;;;;;424.17;157.73;;;;;;;;;;5028809;28;20231;-52
2024/01/24 07:35:01;;;;;;;451.40;184.20;;;;;;;;;;5059272;27;1209417;-51
2024/01/24 07:37:27;;;;;;;468.60;190.47;;;;;;;;;;5043198;28;20553;-52
2024/01/24 07:39:54;;;;;;;428.03;164.47;;;10.00;99.90;;;;;;5035266;28;20335;-53
2024/01/24 07:42:20;;;;;;;417.17;156.20;;;;;;;;;;5040945;28;20307;-52
2024/01/24 07:44:47;;;;;;;431.13;166.77;;;;;;;;;;5041970;28;20215;-53
2024/01/24 07:47:13;;;;;;;482.57;195.13;;;;;;;;;;5039973;28;20210;-53
2024/01/24 07:49:39;;;;;;;394.67;152.80;;;10.00;99.90;;;;;;5065084;28;20175;-50
2024/01/24 07:52:05;;;;;;;390.50;148.67;;;10.20;99.90;;;;;;5065172;28;20226;-50
2024/01/24 07:54:31;;;;;;;390.83;147.67;;;10.00;99.90;;;;;;5064892;28;20214;-50
2024/01/24 07:56:57;;;;;;;401.17;148.80;;;;;;;;;;5064681;28;20225;-50
2024/01/24 07:59:23;;;;;;;400.00;149.30;;;;;;;;;;5064799;28;20207;-50
2024/01/24 08:01:48;;;;;;;395.37;148.37;;;;;;;;;;5065174;28;20183;-50
2024/01/24 08:04:14;;;;;;;382.53;143.20;;;10.10;99.90;;;;;;5064697;28;20837;-50
2024/01/24 08:06:41;;;;;;;388.37;145.33;;;10.10;99.90;;;;;;5064532;28;20230;-50
2024/01/24 08:09:07;;;;;;;379.93;145.77;;;10.20;99.90;;;;;;5064725;28;20613;-50
2024/01/24 08:11:33;;;;;;;387.83;146.97;;;10.10;99.90;;;;;;5064839;28;20210;-50
2024/01/24 08:13:58;;;;;;;382.37;145.20;;;10.00;99.90;;;;;;5065027;28;20649;-50
2024/01/24 08:16:24;;;;;;;392.60;148.07;;;10.10;99.90;;;;;;5064328;28;20235;-50
2024/01/24 08:18:51;;;;;;;384.07;145.33;;;10.00;99.90;;;;;;5064358;28;20226;-50
2024/01/24 08:21:17;;;;;;;386.10;146.30;;;10.00;99.90;;;;;;5064692;28;20712;-50
2024/01/24 08:23:43;;;;;;;396.60;148.30;;;;;;;;;;5064157;28;20219;-49
2024/01/24 08:26:09;;;;;;;385.20;144.93;;;10.10;99.90;;;;;;5064184;28;20206;-49
2024/01/24 08:28:35;;;;;;;388.70;146.07;;;10.00;99.90;;;;;;5064633;28;20175;-49
2024/01/24 08:31:00;;;;;;;391.47;147.37;;;10.10;99.90;;;;;;5064054;28;20211;-49
2024/01/24 08:33:26;;;;;;;398.87;151.00;;;10.10;99.90;;;;;;5063955;28;20375;-51
2024/01/24 08:35:51;;;;;;;375.23;141.37;;;10.10;99.90;;;;;;5064136;28;20219;-50
2024/01/24 08:38:17;;;;;;;398.33;149.73;;;10.10;99.90;;;;;;5064319;28;20167;-50
2024/01/24 08:40:43;;;;;;;387.57;145.57;;;10.40;99.90;;;;;;5064457;28;20190;-51
2024/01/24 08:43:08;;;;;;;382.53;143.60;;;10.10;99.90;;;;;;5064056;28;20702;-50
2024/01/24 08:45:34;;;;;;;397.77;148.40;;;10.10;99.90;;;;;;5055254;28;20261;-51
2024/01/24 08:47:59;;;;;;;386.77;146.70;;;10.00;99.90;;;;;;5050818;28;20230;-51
2024/01/24 08:50:25;;;;;;;388.40;147.47;;;10.00;99.90;;;;;;5050694;28;21398;-51
2024/01/24 08:52:51;;;;;;;393.83;146.27;;;9.90;99.90;;;;;;5051170;28;20164;-51
2024/01/24 08:55:17;;;;;;;391.63;147.67;;;10.00;99.90;;;;;;5050541;28;20741;-51
2024/01/24 08:57:43;;;;;;;392.40;148.70;;;10.00;99.90;;;;;;5050599;28;20230;-50
2024/01/24 09:00:11;;;;;;;401.80;153.10;;;9.90;99.90;;;;;;5050329;28;20204;-49
2024/01/24 09:02:36;;;;;;;402.90;150.87;;;10.10;99.90;;;;;;5050239;28;20242;-50
2024/01/24 09:05:03;;;;;;;390.07;146.87;;;9.90;99.90;;;;;;5050351;28;20654;-50
2024/01/24 09:07:28;;;;;;;395.83;152.03;;;10.10;99.90;;;;;;5050764;28;20196;-49
2024/01/24 09:09:55;;;;;;;391.03;148.00;;;10.20;99.90;;;;;;5050074;28;20797;-50
2024/01/24 09:12:21;;;;;;;383.97;145.87;;;10.10;99.90;;;;;;5050091;28;20215;-50
2024/01/24 09:14:47;;;;;;;389.67;147.67;;;9.30;99.90;;;;;;5050271;28;20393;-50
2024/01/24 09:17:12;;;;;;;396.13;152.30;;;10.30;99.90;;;;;;5049812;28;20299;-50
2024/01/24 09:19:42;;;;;;;421.80;163.00;;;10.30;99.90;;;;;;5049737;28;20179;-50
2024/01/24 09:22:09;;;;;;;405.57;151.60;;;10.40;99.90;;;;;;5048720;28;20242;-50
2024/01/24 09:24:35;;;;;;;394.73;147.80;;;10.40;99.90;;;;;;5049778;28;20296;-50
2024/01/24 09:27:01;;;;;;;395.97;148.60;;;10.30;99.90;;;;;;5049815;28;20306;-50
2024/01/24 09:29:27;;;;;;;400.97;151.57;;;10.50;99.90;;;;;;5049925;28;20275;-50
2024/01/24 09:31:52;;;;;;;405.50;153.17;;;10.40;99.90;;;;;;5050484;28;20184;-50
2024/01/24 09:34:18;;;;;;;383.00;146.23;;;12.30;99.90;;;;;;5049619;28;20601;-50
2024/01/24 09:36:43;;;;;;;392.00;146.63;;;10.50;99.90;;;;;;5049746;28;20314;-50
2024/01/24 09:39:09;;;;;;;397.47;151.57;;;10.50;99.90;;;;;;5049868;28;20574;-49
2024/01/24 09:41:40;;;;;;;410.07;154.50;;;10.50;99.90;;;;;;5049612;28;20215;-50
2024/01/24 09:44:09;;;;;;;395.27;151.77;;;10.50;99.90;;;;;;5049737;28;20211;-50
2024/01/24 09:46:36;;;;;;;384.30;145.37;;;10.60;99.90;;;;;;5049806;28;20236;-50
2024/01/24 09:49:05;;;;;;;394.93;149.73;;;10.40;99.90;;;;;;5049245;28;20211;-50
2024/01/24 09:51:33;;;;;;;407.53;153.10;;;10.40;99.90;;;;;;5049631;28;20223;-50
2024/01/24 09:54:04;;;;;;;404.40;149.13;;;10.30;99.90;;;;;;5049627;28;20299;-49
2024/01/24 09:56:32;;;;;;;393.50;155.43;;;10.30;99.90;;;;;;5048637;28;20212;-51
2024/01/24 09:58:58;;;;;;;379.63;149.67;;;10.20;99.90;;;;;;5050044;28;20175;-50
2024/01/24 10:01:25;;;;;;;387.03;155.30;;;;;;;;;;5049561;28;20212;-50
2024/01/24 10:03:52;;;;;;;379.97;152.80;;;;;;;;;;5049179;28;20231;-51
2024/01/24 10:06:20;;;;;;;387.77;156.57;;;10.00;99.90;;;;;;5048425;28;20288;-50
2024/01/24 10:08:45;;;;;;;379.73;152.17;;;9.90;99.90;;;;;;5047812;28;20225;-51
2024/01/24 10:11:11;;;;;;;380.47;146.70;;;9.90;99.90;;;;;;5049173;28;20266;-49
2024/01/24 10:13:37;;;;;;;390.00;147.80;;;9.90;99.90;;;;;;5050097;28;20171;-51
2024/01/24 10:16:05;;;;;;;380.33;144.30;;;9.90;99.90;;;;;;5048032;28;20223;-50
2024/01/24 10:18:31;;;;;;;389.30;147.33;;;10.00;99.90;;;;;;5048815;28;20227;-50
2024/01/24 10:20:58;;;;;;;402.97;153.33;;;9.90;99.90;;;;;;5049142;28;20237;-50
2024/01/24 10:23:24;;;;;;;379.17;140.80;;;9.90;99.90;;;;;;5048747;28;20245;-50
2024/01/24 10:25:50;;;;;;;388.80;147.07;;;10.00;99.90;;;;;;5049573;28;20192;-50
2024/01/24 10:28:16;;;;;;;390.73;149.27;;;9.80;99.90;;;;;;5049051;28;20349;-50
2024/01/24 10:30:42;;;;;;;398.30;151.63;;;9.90;99.90;;;;;;5048817;28;20308;-50
2024/01/24 10:33:12;;;;;;;387.90;146.83;;;9.80;99.90;;;;;;5048805;28;20203;-50
2024/01/24 10:35:38;;;;;;;388.77;147.63;;;;;;;;;;5048763;28;20946;-50
2024/01/24 10:38:05;;;;;;;386.93;145.53;;;9.80;99.90;;;;;;5048643;28;20167;-49
2024/01/24 10:40:31;;;;;;;368.27;137.60;;;9.80;98.00;;;;;;5049011;28;20167;-50
2024/01/24 10:43:07;;;;;;;383.70;146.17;;;9.80;71.70;;;;;;5048448;28;20294;-50
2024/01/24 10:45:34;;;;;;;375.13;141.80;;;9.90;92.40;;;;;;5048516;28;20632;-50
2024/01/24 10:48:00;;;;;;;398.67;148.83;;;;;;;;;;5048561;28;20579;-50
2024/01/24 10:50:26;;;;;;;392.57;146.30;;;9.90;77.50;;;;;;5048150;28;20215;-50
2024/01/24 10:52:51;;;;;;;402.80;150.07;;;9.90;67.80;;;;;;5048679;28;20191;-50
2024/01/24 10:55:17;;;;;;;402.57;151.13;;;10.20;79.40;;;;;;5048440;28;20237;-50
2024/01/24 10:57:44;;;;;;;391.90;146.73;;;10.00;63.40;;;;;;5048050;28;20211;-50
2024/01/24 11:00:11;;;;;;;407.27;153.93;;;10.00;82.30;;;;;;5046688;28;20238;-49
2024/01/24 11:02:41;;;;;;;406.20;153.90;;;10.20;74.50;;;;;;5048020;28;20344;-50
2024/01/24 11:05:12;;;;;;;394.87;150.40;;;10.30;43.20;;;;;;5048203;28;20286;-50
2024/01/24 11:07:47;;;;;;;402.67;150.33;;;10.80;1.00;;;;;;5048235;28;20234;-50
2024/01/24 11:10:26;;;;;;;396.37;149.23;;;10.30;1.00;;;;;;5035566;28;20682;-50
2024/01/24 11:12:51;;;;;;;403.83;152.03;;;10.70;1.00;;;;;;5027946;28;20219;-50
2024/01/24 11:15:17;;;;;;;409.77;155.90;;;10.50;1.00;;;;;;5027558;28;20255;-50
2024/01/24 11:17:46;;;;;;;404.90;152.57;;;10.50;1.00;;;;;;5027955;28;20220;-50
2024/01/24 11:20:14;;;;;;;397.17;149.63;;;10.70;1.00;;;;;;5027711;28;20180;-50
2024/01/24 11:22:40;;;;;;;394.00;147.47;;;10.80;1.00;;;;;;5028340;28;20248;-50
2024/01/24 11:25:10;;;;;;;398.60;150.23;;;10.70;1.00;;;;;;5027519;28;20232;-50
2024/01/24 11:27:36;;;;;;;409.27;155.47;;;10.60;1.00;;;;;;5027529;28;20255;-50
2024/01/24 11:30:11;;;;;;;410.77;153.13;;;10.70;99.90;;;;;;5027807;28;20220;-50
2024/01/24 11:32:46;;;;;;;398.27;149.60;;;10.80;99.90;;;;;;5027802;28;20226;-49
2024/01/24 11:35:31;;;;;;;412.30;155.93;;;10.90;99.90;;;;;;5027235;28;20551;-50
2024/01/24 11:38:01;;;;;;;393.73;147.60;;;10.90;99.90;;;;;;5027943;28;20180;-50
2024/01/24 11:40:26;;;;;;;401.63;149.07;;;10.90;1.00;;;;;;5027711;28;20254;-50
2024/01/24 11:42:56;;;;;;;407.43;154.87;;;10.90;16.10;;;;;;5042351;28;20729;-50
2024/01/24 11:45:24;;;;;;;394.43;153.07;;;;;;;;;;5046228;28;20216;-50
2024/01/24 11:47:51;;;;;;;399.80;152.40;;;10.60;99.90;;;;;;5045829;28;20710;-50
2024/01/24 11:50:16;;;;;;;392.40;148.57;;;10.90;99.90;;;;;;5047309;28;20167;-50
2024/01/24 11:52:42;;;;;;;392.67;147.60;;;11.20;78.40;;;;;;5047966;28;20180;-50
2024/01/24 11:55:08;;;;;;;404.73;151.23;;;11.00;1.00;;;;;;5047385;28;20697;-50
2024/01/24 11:57:34;;;;;;;404.37;152.03;;;11.30;1.00;;;;;;5047026;28;20301;-49
2024/01/24 12:00:00;;;;;;;388.30;150.93;;;11.30;1.00;;;;;;5047410;28;20251;-50
2024/01/24 12:02:25;;;;;;;403.67;152.63;;;10.90;99.90;;;;;;5047296;28;20219;-50
2024/01/24 12:04:52;;;;;;;382.07;144.63;;;;;;;;;;5047924;28;20214;-50
2024/01/24 12:07:18;;;;;;;403.80;155.07;;;;;;;;;;5047388;28;20223;-50
2024/01/24 12:09:44;;;;;;;399.50;152.23;;;;;;;;;;5047153;28;20677;-50
2024/01/24 12:12:11;;;;;;;400.50;152.97;;;;;;;;;;5047296;28;20222;-50
2024/01/24 12:14:37;;;;;;;407.80;152.97;;;;;;;;;;5047439;28;20223;-50
2024/01/24 12:17:03;;;;;;;389.53;150.20;;;;;;;;;;5047470;28;20554;-50
2024/01/24 12:19:30;;;;;;;410.23;156.47;;;9.10;1.00;;;;;;5047128;28;20641;-50
2024/01/24 12:21:55;;;;;;;401.23;154.47;;;11.40;1.00;;;;;;5050300;28;20215;-49
2024/01/24 12:24:22;;;;;;;392.53;149.93;;;11.40;16.70;;;;;;5050887;28;20238;-50
2024/01/24 12:26:48;;;;;;;407.57;154.10;;;;;;;;;;5050869;28;20219;-50
2024/01/24 12:29:14;;;;;;;414.70;160.37;;;11.40;1.00;;;;;;5050584;28;20175;-50
2024/01/24 12:31:45;;;;;;;400.80;152.17;;;11.50;1.00;;;;;;5050558;28;20241;-50
2024/01/24 12:34:11;;;;;;;368.87;141.33;;;;;;;;;;5050554;28;20301;-50
2024/01/24 12:36:37;;;;;;;367.20;141.47;;;;;;;;;;5050774;28;20785;-50
2024/01/24 12:39:05;;;;;;;425.13;172.07;;;;;;;;;;5049838;28;20606;-50
2024/01/24 12:41:32;;;;;;;435.33;170.30;;;;;;;;;;5050860;28;20219;-50
2024/01/24 12:43:58;;;;;;;451.80;172.07;;;;;;;;;;5051136;28;20585;-50
2024/01/24 12:46:25;;;;;;;415.23;166.63;;;;;;;;;;5049437;28;20216;-50
2024/01/24 12:48:51;;;;;;;402.03;157.23;;;;;;;;;;5050292;28;20274;-50
2024/01/24 12:51:17;;;;;;;400.40;156.90;;;;;;;;;;5050584;28;20220;-51
2024/01/24 12:53:42;;;;;;;402.10;155.70;;;;;;;;;;5050420;28;20215;-49
2024/01/24 12:56:08;;;;;;;413.97;161.37;;;;;;;;;;5049209;28;20195;-49
2024/01/24 12:58:35;;;;;;;406.30;157.53;;;;;;;;;;5051075;28;20226;-49
2024/01/24 13:01:01;;;;;;;409.67;159.40;;;;;;;;;;5050146;28;20231;-49
2024/01/24 13:03:27;;;;;;;404.53;158.27;;;;;;;;;;5049934;28;20239;-49
2024/01/24 13:05:53;;;;;;;412.27;157.97;;;;;;;;;;5049911;28;20355;-49
2024/01/24 13:08:19;;;;;;;407.50;158.13;;;;;;;;;;5050127;28;20233;-49
2024/01/24 13:10:46;;;;;;;409.03;160.47;;;;;;;;;;5050283;28;20182;-51
2024/01/24 13:13:12;;;;;;;392.60;152.43;;;;;;;;;;5049626;28;20278;-49
2024/01/24 13:15:38;;;;;;;411.27;159.70;;;;;;;;;;5049941;28;20239;-49
2024/01/24 13:18:04;;;;;;;402.83;154.67;;;;;;;;;;5050103;28;20223;-49
2024/01/24 13:20:30;;;;;;;412.07;160.27;;;;;;;;;;5049527;28;20215;-49